Portada
METAR-TAF:

METAR-TAF

Aeropuertos :

Base Aérea de Torrejón / Aeropuerto de Madrid-Torrejón

Madrid-Torrejón, España

latitud: 40-29N, longitud: 003-27W, altitud: 607 m

Observación

El informe se hizo hace 1 hora y 6 minutos, a las 07:00 UTC
Viento 4 kt del norte-noreste
Temperatura 14°C
Humedad 58%
Presión 1020 hPa
Visibilidad 10 km o más
sin nubes por debajo de 1500 m y sin presencia de cumulonimbus.

METAR: LETO 250700Z 03004KT CAVOK 14/06 Q1020 NOSIG

Hora: 10:06 (08:06 UTC)

Pronóstico

El informe se hizo hace 3 horas y 6 minutos, a las 05:00 UTC
Pronóstico válido del 25 a las 06 UTC al 26 a las 06 UTC
Viento 8 kt del norte-noreste
Visibilidad 10 km o más
sin nubes por debajo de 1500 m y sin presencia de cumulonimbus.
Temporalmente
del 25 a las 09 UTC al 25 a las 21 UTC
Viento 18 kt del noreste con ráfagas de 28 kt

TAF: LETO 250500Z 2506/2606 03008KT CAVOK TX26/2515Z TN08/2605Z TEMPO 2509/2521 04018G28KT

Observaciones y pronósticos meteorológicos de más de 4000 aeropuertos (mensajes METAR y TAF).

Los puntos amarillos y rojos representan las estaciones disponibles.

Ponga el ratón en el punto deseado para ver el nombre de la estación.

Haga clic para ver las observaciones y los pronósticos meteorológicos.

Para cambiar el mapa : haga clic en los botones verdes con una cruz de color negro para hacer un zoom, en el botón verde con un guión para alejar o en las flechas verdes para mapas adyacentes.


METAR-TAF: